SWA3323 KMDW-KMSP
Flight info
| Callsign | SWA3323 |
|---|---|
| Flight time | 0h 57m |
| Altitude | 38000 |
| Route | PMPKN NEATO DLLAN RONIC KAMMA KKILR4 |
| Aircraft | B737/M-SDE2E3FGHIRWXY/LB1 |
Departure
| Time | 2026-05-07 13:25 |
|---|---|
| Airport | Chicago Midway International Airport (KMDW) |
Arrival
| Time | 2026-05-07 14:22 |
|---|---|
| Airport | Minneapolis–Saint Paul International Airport / Wold–Chamberlain Field (KMSP) |
| Time | Latitude | Longitude | Altitude | Speed | Heading |
|---|---|---|---|---|---|
| 2026-05-07 13:03 | 41.78865 | -87.74399 | 628 ft | 0 kts | 142° |
| 2026-05-07 13:17 | 41.78876 | -87.74410 | 636 ft | 4 kts | 142° |
| 2026-05-07 13:17 | 41.78891 | -87.74426 | 633 ft | 4 kts | 121° |
| 2026-05-07 13:17 | 41.78894 | -87.74447 | 628 ft | 4 kts | 48° |
| 2026-05-07 13:17 | 41.78879 | -87.74466 | 633 ft | 1 kts | 43° |
| 2026-05-07 13:18 | 41.78879 | -87.74467 | 628 ft | 1 kts | 43° |
| 2026-05-07 13:22 | 41.78888 | -87.74458 | 634 ft | 6 kts | 32° |
| 2026-05-07 13:22 | 41.78935 | -87.74444 | 628 ft | 7 kts | 11° |
| 2026-05-07 13:22 | 41.78984 | -87.74417 | 632 ft | 8 kts | 31° |
| 2026-05-07 13:23 | 41.79024 | -87.74371 | 628 ft | 7 kts | 43° |
| 2026-05-07 13:23 | 41.79061 | -87.74326 | 630 ft | 7 kts | 43° |
| 2026-05-07 13:23 | 41.79097 | -87.74281 | 634 ft | 7 kts | 43° |
| 2026-05-07 13:23 | 41.79140 | -87.74259 | 628 ft | 7 kts | 354° |
| 2026-05-07 13:24 | 41.79179 | -87.74291 | 628 ft | 7 kts | 315° |
| 2026-05-07 13:24 | 41.79173 | -87.74341 | 632 ft | 0 kts | 224° |
| 2026-05-07 13:24 | 41.79087 | -87.74449 | 629 ft | 55 kts | 223° |
| 2026-05-07 13:25 | 41.78602 | -87.75067 | 628 ft | 137 kts | 224° |
| 2026-05-07 13:25 | 41.77794 | -87.76066 | 1092 ft | 167 kts | 223° |
| 2026-05-07 13:25 | 41.76935 | -87.77090 | 2266 ft | 164 kts | 225° |
| 2026-05-07 13:25 | 41.76041 | -87.78153 | 2944 ft | 195 kts | 224° |
| 2026-05-07 13:26 | 41.74904 | -87.79489 | 3007 ft | 235 kts | 224° |
| 2026-05-07 13:26 | 41.73657 | -87.80956 | 2987 ft | 243 kts | 224° |
| 2026-05-07 13:26 | 41.72368 | -87.82484 | 2980 ft | 252 kts | 224° |
| 2026-05-07 13:26 | 41.71049 | -87.84047 | 2983 ft | 254 kts | 224° |
| 2026-05-07 13:27 | 41.69804 | -87.85698 | 2987 ft | 250 kts | 238° |
| 2026-05-07 13:27 | 41.69234 | -87.87846 | 3069 ft | 247 kts | 268° |
| 2026-05-07 13:27 | 41.69633 | -87.90054 | 3772 ft | 248 kts | 301° |
| 2026-05-07 13:27 | 41.70861 | -87.91615 | 5223 ft | 245 kts | 330° |
| 2026-05-07 13:28 | 41.72519 | -87.92208 | 6522 ft | 251 kts | 352° |
| 2026-05-07 13:28 | 41.74286 | -87.92269 | 7631 ft | 257 kts | 355° |
| 2026-05-07 13:28 | 41.76078 | -87.92281 | 8765 ft | 259 kts | 353° |
| 2026-05-07 13:28 | 41.77895 | -87.92320 | 9908 ft | 262 kts | 353° |
| 2026-05-07 13:29 | 41.79724 | -87.92367 | 10672 ft | 277 kts | 352° |
| 2026-05-07 13:29 | 41.81769 | -87.92428 | 10919 ft | 309 kts | 353° |
| 2026-05-07 13:29 | 41.84019 | -87.92490 | 11198 ft | 336 kts | 353° |
| 2026-05-07 13:29 | 41.86402 | -87.92543 | 11900 ft | 348 kts | 353° |
| 2026-05-07 13:30 | 41.88849 | -87.92588 | 12763 ft | 355 kts | 353° |
| 2026-05-07 13:30 | 41.91345 | -87.92632 | 13637 ft | 362 kts | 353° |
| 2026-05-07 13:30 | 41.93888 | -87.92679 | 14412 ft | 370 kts | 353° |
| 2026-05-07 13:30 | 41.96480 | -87.92726 | 15252 ft | 374 kts | 353° |
| 2026-05-07 13:31 | 41.99095 | -87.92775 | 16146 ft | 378 kts | 352° |
| 2026-05-07 13:31 | 42.01742 | -87.92825 | 16967 ft | 383 kts | 352° |
| 2026-05-07 13:31 | 42.04419 | -87.92879 | 17741 ft | 389 kts | 352° |
| 2026-05-07 13:31 | 42.07151 | -87.92933 | 18509 ft | 394 kts | 352° |
| 2026-05-07 13:32 | 42.09882 | -87.92988 | 19189 ft | 399 kts | 352° |
| 2026-05-07 13:32 | 42.12666 | -87.93042 | 19915 ft | 402 kts | 352° |
| 2026-05-07 13:32 | 42.15478 | -87.93097 | 20614 ft | 406 kts | 352° |
| 2026-05-07 13:32 | 42.18319 | -87.93154 | 21323 ft | 410 kts | 352° |
| 2026-05-07 13:33 | 42.21192 | -87.93211 | 21925 ft | 416 kts | 352° |
| 2026-05-07 13:33 | 42.24102 | -87.93269 | 22541 ft | 421 kts | 352° |
| 2026-05-07 13:33 | 42.27044 | -87.93327 | 23186 ft | 425 kts | 352° |
| 2026-05-07 13:33 | 42.30013 | -87.93386 | 23784 ft | 429 kts | 351° |
| 2026-05-07 13:34 | 42.32994 | -87.93551 | 24277 ft | 430 kts | 348° |
| 2026-05-07 13:34 | 42.38982 | -87.94296 | 25289 ft | 435 kts | 346° |
| 2026-05-07 13:34 | 42.42011 | -87.94692 | 25726 ft | 440 kts | 347° |
| 2026-05-07 13:35 | 42.45078 | -87.95064 | 26162 ft | 444 kts | 347° |
| 2026-05-07 13:35 | 42.48172 | -87.95426 | 26617 ft | 447 kts | 346° |
| 2026-05-07 13:35 | 42.51270 | -87.95809 | 27068 ft | 450 kts | 346° |
| 2026-05-07 13:35 | 42.54412 | -87.96214 | 27490 ft | 453 kts | 346° |
| 2026-05-07 13:36 | 42.57565 | -87.96622 | 27904 ft | 457 kts | 346° |
| 2026-05-07 13:36 | 42.60740 | -87.97031 | 28332 ft | 460 kts | 346° |
| 2026-05-07 13:36 | 42.63941 | -87.97406 | 28728 ft | 465 kts | 348° |
| 2026-05-07 13:36 | 42.67185 | -87.97627 | 29104 ft | 469 kts | 349° |
| 2026-05-07 13:37 | 42.70432 | -87.97984 | 29458 ft | 464 kts | 342° |
| 2026-05-07 13:37 | 42.73522 | -87.99030 | 29968 ft | 451 kts | 332° |
| 2026-05-07 13:37 | 42.76369 | -88.00664 | 30487 ft | 437 kts | 323° |
| 2026-05-07 13:37 | 42.78989 | -88.02707 | 30961 ft | 433 kts | 321° |
| 2026-05-07 13:38 | 42.81593 | -88.04789 | 31342 ft | 434 kts | 321° |
| 2026-05-07 13:38 | 42.84201 | -88.06875 | 31703 ft | 434 kts | 321° |
| 2026-05-07 13:38 | 42.86811 | -88.08945 | 32113 ft | 434 kts | 321° |
| 2026-05-07 13:38 | 42.89424 | -88.11003 | 32540 ft | 433 kts | 322° |
| 2026-05-07 13:39 | 42.92035 | -88.13049 | 32965 ft | 432 kts | 322° |
| 2026-05-07 13:39 | 42.94644 | -88.15092 | 33347 ft | 432 kts | 322° |
| 2026-05-07 13:39 | 42.97253 | -88.17136 | 33718 ft | 432 kts | 322° |
| 2026-05-07 13:39 | 42.99860 | -88.19179 | 34090 ft | 432 kts | 322° |
| 2026-05-07 13:40 | 43.02463 | -88.21223 | 34395 ft | 433 kts | 322° |
| 2026-05-07 13:40 | 43.05085 | -88.23285 | 34552 ft | 436 kts | 323° |
| 2026-05-07 13:40 | 43.07685 | -88.25331 | 34790 ft | 437 kts | 323° |
| 2026-05-07 13:40 | 43.10314 | -88.27410 | 35110 ft | 435 kts | 321° |
| 2026-05-07 13:41 | 43.12654 | -88.29921 | 35365 ft | 422 kts | 307° |
| 2026-05-07 13:41 | 43.14528 | -88.32981 | 35634 ft | 419 kts | 303° |
| 2026-05-07 13:41 | 43.16336 | -88.36109 | 35872 ft | 419 kts | 303° |
| 2026-05-07 13:41 | 43.18142 | -88.39264 | 36101 ft | 420 kts | 303° |
| 2026-05-07 13:42 | 43.19949 | -88.42413 | 36372 ft | 421 kts | 303° |
| 2026-05-07 13:42 | 43.21763 | -88.45556 | 36616 ft | 421 kts | 303° |
| 2026-05-07 13:42 | 43.23590 | -88.48708 | 36828 ft | 423 kts | 304° |
| 2026-05-07 13:42 | 43.25431 | -88.51874 | 36989 ft | 426 kts | 304° |
| 2026-05-07 13:43 | 43.27282 | -88.55049 | 37267 ft | 425 kts | 304° |
| 2026-05-07 13:43 | 43.29125 | -88.58210 | 37565 ft | 424 kts | 304° |
| 2026-05-07 13:43 | 43.30972 | -88.61379 | 37799 ft | 425 kts | 304° |
| 2026-05-07 13:43 | 43.32819 | -88.64552 | 37994 ft | 426 kts | 304° |
| 2026-05-07 13:44 | 43.34678 | -88.67751 | 38036 ft | 430 kts | 304° |
| 2026-05-07 13:44 | 43.37777 | -88.73091 | 38045 ft | 429 kts | 304° |
| 2026-05-07 13:45 | 43.41479 | -88.79478 | 38037 ft | 424 kts | 304° |
| 2026-05-07 13:45 | 43.45140 | -88.85813 | 38048 ft | 422 kts | 304° |
| 2026-05-07 13:46 | 43.48779 | -88.92124 | 38051 ft | 420 kts | 304° |
| 2026-05-07 13:46 | 43.52402 | -88.98421 | 38045 ft | 419 kts | 304° |
| 2026-05-07 13:47 | 43.56017 | -89.04719 | 38038 ft | 419 kts | 304° |
| 2026-05-07 13:47 | 43.59642 | -89.11048 | 38038 ft | 421 kts | 304° |
| 2026-05-07 13:48 | 43.63279 | -89.17412 | 38065 ft | 423 kts | 304° |
| 2026-05-07 13:48 | 43.66911 | -89.23780 | 38043 ft | 426 kts | 305° |
| 2026-05-07 13:49 | 43.70586 | -89.30236 | 38033 ft | 428 kts | 305° |
| 2026-05-07 13:49 | 43.74276 | -89.36733 | 38030 ft | 429 kts | 305° |
| 2026-05-07 13:50 | 43.77962 | -89.43236 | 38029 ft | 429 kts | 305° |
| 2026-05-07 13:50 | 43.81645 | -89.49750 | 38025 ft | 429 kts | 305° |
| 2026-05-07 13:51 | 43.85316 | -89.56256 | 38028 ft | 429 kts | 305° |
| 2026-05-07 13:51 | 43.88986 | -89.62778 | 38022 ft | 429 kts | 305° |
| 2026-05-07 13:52 | 43.92649 | -89.69301 | 38020 ft | 428 kts | 305° |
| 2026-05-07 13:52 | 43.96303 | -89.75823 | 38019 ft | 428 kts | 305° |
| 2026-05-07 13:53 | 43.99925 | -89.82302 | 38014 ft | 427 kts | 305° |
| 2026-05-07 13:53 | 44.03562 | -89.88823 | 38044 ft | 427 kts | 305° |
| 2026-05-07 13:54 | 44.07199 | -89.95357 | 38028 ft | 427 kts | 305° |
| 2026-05-07 13:54 | 44.10914 | -90.01820 | 37992 ft | 427 kts | 307° |
| 2026-05-07 13:55 | 44.14691 | -90.08209 | 38007 ft | 427 kts | 307° |
| 2026-05-07 13:55 | 44.18449 | -90.14604 | 38003 ft | 427 kts | 306° |
| 2026-05-07 13:56 | 44.22195 | -90.21023 | 38000 ft | 426 kts | 306° |
| 2026-05-07 13:56 | 44.25936 | -90.27455 | 38011 ft | 427 kts | 306° |
| 2026-05-07 13:57 | 44.29679 | -90.33905 | 38010 ft | 428 kts | 306° |
| 2026-05-07 13:57 | 44.33400 | -90.40327 | 38001 ft | 428 kts | 306° |
| 2026-05-07 13:58 | 44.36269 | -90.47477 | 38047 ft | 422 kts | 290° |
| 2026-05-07 13:58 | 44.38453 | -90.55120 | 38012 ft | 424 kts | 291° |
| 2026-05-07 13:59 | 44.40702 | -90.62748 | 38017 ft | 424 kts | 291° |
| 2026-05-07 13:59 | 44.42957 | -90.70380 | 38021 ft | 425 kts | 291° |
| 2026-05-07 14:00 | 44.45218 | -90.78030 | 38005 ft | 426 kts | 291° |
| 2026-05-07 14:00 | 44.47477 | -90.85689 | 38014 ft | 425 kts | 291° |
| 2026-05-07 14:01 | 44.49739 | -90.93391 | 37441 ft | 433 kts | 291° |
| 2026-05-07 14:01 | 44.50875 | -90.97267 | 36830 ft | 429 kts | 291° |
| 2026-05-07 14:01 | 44.52006 | -91.01132 | 36120 ft | 428 kts | 291° |
| 2026-05-07 14:01 | 44.53132 | -91.04984 | 35347 ft | 428 kts | 291° |
| 2026-05-07 14:02 | 44.54264 | -91.08864 | 34516 ft | 430 kts | 291° |
| 2026-05-07 14:02 | 44.55382 | -91.12703 | 33594 ft | 432 kts | 291° |
| 2026-05-07 14:02 | 44.56533 | -91.16663 | 32579 ft | 433 kts | 291° |
| 2026-05-07 14:02 | 44.57655 | -91.20530 | 31626 ft | 433 kts | 292° |
| 2026-05-07 14:03 | 44.58792 | -91.24450 | 30658 ft | 435 kts | 292° |
| 2026-05-07 14:03 | 44.59923 | -91.28357 | 29944 ft | 430 kts | 292° |
| 2026-05-07 14:03 | 44.61044 | -91.32233 | 29090 ft | 426 kts | 292° |
| 2026-05-07 14:03 | 44.62150 | -91.36066 | 28345 ft | 420 kts | 292° |
| 2026-05-07 14:04 | 44.63242 | -91.39850 | 27627 ft | 415 kts | 292° |
| 2026-05-07 14:04 | 44.64317 | -91.43574 | 26927 ft | 410 kts | 292° |
| 2026-05-07 14:04 | 44.65383 | -91.47272 | 26217 ft | 406 kts | 292° |
| 2026-05-07 14:04 | 44.66438 | -91.50937 | 25525 ft | 403 kts | 292° |
| 2026-05-07 14:05 | 44.67485 | -91.54581 | 24831 ft | 400 kts | 293° |
| 2026-05-07 14:05 | 44.68508 | -91.58147 | 24159 ft | 398 kts | 293° |
| 2026-05-07 14:05 | 44.69539 | -91.61746 | 23443 ft | 396 kts | 293° |
| 2026-05-07 14:05 | 44.70567 | -91.65337 | 22641 ft | 394 kts | 293° |
| 2026-05-07 14:06 | 44.71586 | -91.68907 | 21926 ft | 391 kts | 292° |
| 2026-05-07 14:06 | 44.72591 | -91.72431 | 21221 ft | 387 kts | 292° |
| 2026-05-07 14:06 | 44.73588 | -91.75930 | 20534 ft | 384 kts | 292° |
| 2026-05-07 14:06 | 44.74575 | -91.79400 | 19843 ft | 380 kts | 292° |
| 2026-05-07 14:07 | 44.75553 | -91.82842 | 19267 ft | 376 kts | 292° |
| 2026-05-07 14:07 | 44.76497 | -91.86170 | 19144 ft | 359 kts | 292° |
| 2026-05-07 14:07 | 44.77403 | -91.89400 | 18650 ft | 354 kts | 292° |
| 2026-05-07 14:07 | 44.78286 | -91.92636 | 18066 ft | 352 kts | 291° |
| 2026-05-07 14:08 | 44.79153 | -91.95844 | 17463 ft | 349 kts | 291° |
| 2026-05-07 14:08 | 44.80000 | -91.98981 | 16901 ft | 346 kts | 291° |
| 2026-05-07 14:08 | 44.80850 | -92.02131 | 16332 ft | 343 kts | 291° |
| 2026-05-07 14:08 | 44.81694 | -92.05250 | 15766 ft | 340 kts | 291° |
| 2026-05-07 14:09 | 44.82536 | -92.08367 | 15183 ft | 338 kts | 291° |
| 2026-05-07 14:09 | 44.83371 | -92.11454 | 14631 ft | 333 kts | 291° |
| 2026-05-07 14:09 | 44.84182 | -92.14465 | 14068 ft | 324 kts | 291° |
| 2026-05-07 14:09 | 44.84969 | -92.17388 | 13502 ft | 313 kts | 291° |
| 2026-05-07 14:10 | 44.85462 | -92.20314 | 12967 ft | 304 kts | 277° |
| 2026-05-07 14:10 | 44.85613 | -92.23265 | 12465 ft | 299 kts | 276° |
| 2026-05-07 14:10 | 44.85767 | -92.26184 | 11973 ft | 299 kts | 276° |
| 2026-05-07 14:10 | 44.85934 | -92.29087 | 11456 ft | 303 kts | 276° |
| 2026-05-07 14:11 | 44.86109 | -92.32036 | 10965 ft | 299 kts | 276° |
| 2026-05-07 14:11 | 44.86263 | -92.34943 | 10515 ft | 294 kts | 275° |
| 2026-05-07 14:11 | 44.86398 | -92.37770 | 10349 ft | 284 kts | 275° |
| 2026-05-07 14:11 | 44.86530 | -92.40533 | 10214 ft | 282 kts | 275° |
| 2026-05-07 14:12 | 44.86664 | -92.43320 | 10091 ft | 287 kts | 275° |
| 2026-05-07 14:12 | 44.86801 | -92.46154 | 9813 ft | 294 kts | 275° |
| 2026-05-07 14:12 | 44.86659 | -92.49044 | 9367 ft | 298 kts | 258° |
| 2026-05-07 14:12 | 44.85886 | -92.51740 | 8947 ft | 296 kts | 246° |
| 2026-05-07 14:13 | 44.84929 | -92.54296 | 8522 ft | 292 kts | 245° |
| 2026-05-07 14:13 | 44.83976 | -92.56813 | 8105 ft | 290 kts | 245° |
| 2026-05-07 14:13 | 44.83040 | -92.59324 | 7714 ft | 290 kts | 245° |
| 2026-05-07 14:13 | 44.82111 | -92.61842 | 7300 ft | 289 kts | 245° |
| 2026-05-07 14:14 | 44.81221 | -92.64260 | 7034 ft | 271 kts | 245° |
| 2026-05-07 14:14 | 44.80386 | -92.66530 | 7011 ft | 253 kts | 245° |
| 2026-05-07 14:14 | 44.79587 | -92.68707 | 7008 ft | 249 kts | 245° |
| 2026-05-07 14:14 | 44.78800 | -92.70850 | 7008 ft | 245 kts | 245° |
| 2026-05-07 14:15 | 44.78025 | -92.72958 | 7008 ft | 240 kts | 245° |
| 2026-05-07 14:15 | 44.77277 | -92.75023 | 7006 ft | 234 kts | 250° |
| 2026-05-07 14:15 | 44.76944 | -92.77210 | 6815 ft | 227 kts | 268° |
| 2026-05-07 14:15 | 44.76845 | -92.79408 | 6583 ft | 223 kts | 268° |
| 2026-05-07 14:16 | 44.76742 | -92.81565 | 6337 ft | 219 kts | 267° |
| 2026-05-07 14:16 | 44.76636 | -92.83690 | 6095 ft | 215 kts | 267° |
| 2026-05-07 14:16 | 44.76528 | -92.85772 | 5867 ft | 212 kts | 267° |
| 2026-05-07 14:16 | 44.76418 | -92.87825 | 5649 ft | 210 kts | 267° |
| 2026-05-07 14:17 | 44.76307 | -92.89876 | 5429 ft | 210 kts | 267° |
| 2026-05-07 14:17 | 44.76196 | -92.91929 | 5216 ft | 211 kts | 266° |
| 2026-05-07 14:17 | 44.76182 | -92.93987 | 4972 ft | 211 kts | 284° |
| 2026-05-07 14:17 | 44.76869 | -92.95765 | 4763 ft | 204 kts | 303° |
| 2026-05-07 14:18 | 44.77602 | -92.97457 | 4452 ft | 200 kts | 300° |
| 2026-05-07 14:18 | 44.78294 | -92.99062 | 4365 ft | 188 kts | 301° |
| 2026-05-07 14:18 | 44.78974 | -93.00633 | 4138 ft | 188 kts | 301° |
| 2026-05-07 14:18 | 44.79655 | -93.02215 | 3878 ft | 188 kts | 300° |
| 2026-05-07 14:19 | 44.80323 | -93.03770 | 3608 ft | 188 kts | 301° |
| 2026-05-07 14:19 | 44.80999 | -93.05344 | 3349 ft | 187 kts | 301° |
| 2026-05-07 14:19 | 44.81674 | -93.06915 | 3093 ft | 187 kts | 301° |
| 2026-05-07 14:19 | 44.82339 | -93.08463 | 2828 ft | 181 kts | 301° |
| 2026-05-07 14:20 | 44.82979 | -93.09951 | 2576 ft | 173 kts | 301° |
| 2026-05-07 14:20 | 44.83578 | -93.11342 | 2354 ft | 160 kts | 300° |
| 2026-05-07 14:20 | 44.84144 | -93.12659 | 2132 ft | 155 kts | 300° |
| 2026-05-07 14:20 | 44.84709 | -93.13972 | 1923 ft | 159 kts | 301° |
| 2026-05-07 14:21 | 44.85271 | -93.15277 | 1660 ft | 150 kts | 301° |
| 2026-05-07 14:21 | 44.85793 | -93.16488 | 1452 ft | 143 kts | 301° |
| 2026-05-07 14:21 | 44.86292 | -93.17646 | 1269 ft | 138 kts | 301° |
| 2026-05-07 14:21 | 44.86787 | -93.18798 | 1064 ft | 134 kts | 301° |
| 2026-05-07 14:22 | 44.87268 | -93.19910 | 922 ft | 133 kts | 301° |
| 2026-05-07 14:22 | 44.87742 | -93.21013 | 826 ft | 124 kts | 301° |
| 2026-05-07 14:22 | 44.88114 | -93.21874 | 823 ft | 81 kts | 300° |
| 2026-05-07 14:22 | 44.88278 | -93.22269 | 823 ft | 22 kts | 291° |
| 2026-05-07 14:23 | 44.88232 | -93.22392 | 825 ft | 11 kts | 186° |
| 2026-05-07 14:23 | 44.88178 | -93.22322 | 825 ft | 11 kts | 123° |
| 2026-05-07 14:23 | 44.88133 | -93.22305 | 825 ft | 7 kts | 220° |
| 2026-05-07 14:23 | 44.88099 | -93.22352 | 822 ft | 7 kts | 226° |
| 2026-05-07 14:24 | 44.88061 | -93.22407 | 825 ft | 9 kts | 225° |
| 2026-05-07 14:24 | 44.88015 | -93.22472 | 825 ft | 10 kts | 225° |
| 2026-05-07 14:24 | 44.87961 | -93.22551 | 825 ft | 12 kts | 225° |
| 2026-05-07 14:24 | 44.87904 | -93.22633 | 825 ft | 12 kts | 225° |
| 2026-05-07 14:25 | 44.87841 | -93.22686 | 825 ft | 11 kts | 175° |
| 2026-05-07 14:25 | 44.87771 | -93.22653 | 824 ft | 10 kts | 181° |
| 2026-05-07 14:25 | 44.87722 | -93.22693 | 822 ft | 7 kts | 198° |
| 2026-05-07 14:25 | 44.87685 | -93.22654 | 822 ft | 7 kts | 134° |
| 2026-05-07 14:26 | 44.87660 | -93.22618 | 824 ft | 3 kts | 135° |
| 2026-05-07 14:26 | 44.87656 | -93.22613 | 824 ft | 0 kts | 135° |